createdAt,value
2019-05-11T00:04:06.650Z,6.83
2019-05-11T00:09:09.120Z,9.43
2019-05-11T00:14:11.595Z,8.60
2019-05-11T00:19:14.043Z,11.00
2019-05-11T00:24:16.522Z,12.30
2019-05-11T00:29:18.980Z,16.73
2019-05-11T00:34:21.440Z,13.17
2019-05-11T00:39:23.904Z,15.00
2019-05-11T00:44:26.374Z,18.73
2019-05-11T00:49:28.848Z,17.77
2019-05-11T00:54:31.318Z,14.67
2019-05-11T00:59:33.825Z,18.90
2019-05-11T01:04:36.284Z,14.53
2019-05-11T01:09:38.684Z,20.73
2019-05-11T01:14:41.150Z,20.47
2019-05-11T01:19:43.615Z,20.17
2019-05-11T01:24:46.148Z,18.30
2019-05-11T01:29:48.622Z,18.67
2019-05-11T01:34:51.082Z,22.73
2019-05-11T01:39:53.560Z,14.67
2019-05-11T01:44:56.040Z,18.97
2019-05-11T01:49:58.498Z,13.83
2019-05-11T01:55:00.966Z,13.83
2019-05-11T02:00:03.462Z,12.13
2019-05-11T02:05:23.857Z,10.10
2019-05-11T02:10:26.309Z,10.67
2019-05-11T02:15:28.791Z,8.83
2019-05-11T02:20:31.269Z,12.13
2019-05-11T02:25:33.699Z,10.80
2019-05-11T02:30:36.162Z,9.87
2019-05-11T02:35:38.625Z,10.83
2019-05-11T02:40:41.078Z,16.70
2019-05-11T02:45:43.533Z,10.73
2019-05-11T02:50:46.004Z,17.33
2019-05-11T02:55:48.496Z,15.37
2019-05-11T03:00:50.940Z,14.93
2019-05-11T03:05:53.394Z,16.53
2019-05-11T03:10:55.849Z,14.23
2019-05-11T03:15:58.309Z,15.70
2019-05-11T03:21:00.777Z,14.20
2019-05-11T03:26:03.251Z,17.30
2019-05-11T03:31:05.719Z,18.97
2019-05-11T03:36:08.179Z,16.30
2019-05-11T03:41:10.665Z,13.13
2019-05-11T03:46:13.122Z,15.23
2019-05-11T03:51:15.585Z,13.63
2019-05-11T03:56:18.040Z,15.77
2019-05-11T04:01:20.636Z,14.77
2019-05-11T04:06:23.122Z,14.70
2019-05-11T04:11:25.601Z,12.60
2019-05-11T04:16:28.055Z,12.57
2019-05-11T04:21:30.634Z,13.23
2019-05-11T04:26:33.092Z,12.03
2019-05-11T04:31:35.560Z,11.20
2019-05-11T04:36:38.028Z,9.50
2019-05-11T04:41:40.509Z,9.07
2019-05-11T04:46:42.971Z,11.53
2019-05-11T04:51:45.409Z,7.00
2019-05-11T04:56:47.869Z,13.97
2019-05-11T05:01:50.349Z,6.80
2019-05-11T05:06:59.903Z,13.43
2019-05-11T05:11:55.265Z,8.37
2019-05-11T05:16:57.735Z,9.70
2019-05-11T05:22:00.198Z,7.20
2019-05-11T05:27:02.665Z,9.10
2019-05-11T05:32:05.125Z,8.33
2019-05-11T05:37:07.578Z,11.23
2019-05-11T05:42:10.123Z,11.90
2019-05-11T05:47:12.591Z,10.93
2019-05-11T05:52:15.045Z,7.80
2019-05-11T05:57:17.503Z,6.90
2019-05-11T06:02:20.066Z,9.93
2019-05-11T06:07:22.556Z,6.17
2019-05-11T06:12:25.005Z,6.27
2019-05-11T06:17:27.478Z,7.87
2019-05-11T06:22:29.950Z,7.00
2019-05-11T06:27:32.419Z,5.80
2019-05-11T06:32:34.885Z,4.43
2019-05-11T06:37:37.428Z,6.53
2019-05-11T06:42:39.876Z,8.17
2019-05-11T06:47:42.365Z,5.93
2019-05-11T06:52:44.822Z,7.97
2019-05-11T06:57:47.281Z,5.67
2019-05-11T07:02:49.750Z,6.80
2019-05-11T07:07:52.213Z,4.70
2019-05-11T07:12:54.701Z,12.27
2019-05-11T07:17:57.180Z,3.23
2019-05-11T07:22:59.696Z,3.47
2019-05-11T07:28:02.421Z,11.23
2019-05-11T07:33:04.650Z,5.67
2019-05-11T07:38:08.346Z,4.90
2019-05-11T07:43:10.081Z,2.93
2019-05-11T07:48:12.277Z,2.53
2019-05-11T07:53:14.660Z,5.87
2019-05-11T07:58:20.234Z,5.93
2019-05-11T08:03:19.575Z,2.90
2019-05-11T08:08:25.087Z,4.30
2019-05-11T08:13:24.526Z,6.57
2019-05-11T08:18:28.234Z,31.40
2019-05-11T08:23:29.476Z,3.73
2019-05-11T08:28:31.912Z,4.63
2019-05-11T08:33:34.398Z,9.30
2019-05-11T08:38:37.801Z,14.07
2019-05-11T08:43:39.381Z,5.95
2019-05-11T08:48:41.844Z,17.23
2019-05-11T08:53:44.323Z,2.70
2019-05-11T08:58:49.042Z,1.27
2019-05-11T09:03:49.357Z,2.60
2019-05-11T09:08:51.832Z,10.23
2019-05-11T09:13:54.298Z,6.37
2019-05-11T09:18:58.119Z,4.00
2019-05-11T09:23:59.293Z,4.67
2019-05-11T09:29:01.815Z,4.37
2019-05-11T09:34:04.296Z,2.40
2019-05-11T09:39:08.379Z,1.90
2019-05-11T09:44:09.268Z,11.83
2019-05-11T09:49:12.037Z,1.73
2019-05-11T09:54:14.410Z,2.17
2019-05-11T09:59:17.894Z,6.70
2019-05-11T10:04:19.346Z,3.57
2019-05-11T10:09:21.816Z,3.70
2019-05-11T10:14:24.275Z,2.53
2019-05-11T10:19:28.445Z,6.30
2019-05-11T10:24:29.213Z,1.10
2019-05-11T10:29:33.871Z,3.10
2019-05-11T10:34:34.251Z,0.97
2019-05-11T10:39:38.291Z,1.37
2019-05-11T10:44:39.178Z,13.27
2019-05-11T10:49:41.642Z,2.90
2019-05-11T10:54:44.108Z,3.33
2019-05-11T10:59:48.723Z,3.50
2019-05-11T11:04:49.033Z,3.63
2019-05-11T11:09:51.490Z,0.77
2019-05-11T11:14:54.037Z,2.90
2019-05-11T11:19:58.079Z,2.20
2019-05-11T11:24:59.140Z,1.07
2019-05-11T11:30:01.432Z,0.93
2019-05-11T11:35:03.915Z,1.43
2019-05-11T11:40:08.369Z,6.53
2019-05-11T11:45:08.850Z,3.03
2019-05-11T11:50:11.326Z,1.07
2019-05-11T11:55:13.813Z,2.25
2019-05-11T12:00:18.283Z,1.77
2019-05-11T12:05:18.745Z,2.00
2019-05-11T12:10:21.246Z,2.70
2019-05-11T12:15:23.716Z,2.07
2019-05-11T12:20:28.487Z,1.00
2019-05-11T12:25:28.677Z,1.37
2019-05-11T12:30:31.133Z,1.60
2019-05-11T12:35:33.617Z,5.27
2019-05-11T12:40:36.081Z,3.37
2019-05-11T12:45:38.564Z,1.80
2019-05-11T12:50:41.048Z,1.23
2019-05-11T12:55:43.536Z,0.60
2019-05-11T13:00:47.936Z,3.20
2019-05-11T13:05:48.671Z,0.97
2019-05-11T13:10:50.972Z,3.07
2019-05-11T13:15:53.473Z,3.63
2019-05-11T13:20:55.931Z,2.10
2019-05-11T13:25:58.667Z,3.83
2019-05-11T13:31:00.900Z,3.10
2019-05-11T13:36:03.388Z,2.73
2019-05-11T13:41:07.834Z,4.90
2019-05-11T13:46:08.770Z,1.90
2019-05-11T13:51:10.816Z,1.80
2019-05-11T13:56:13.284Z,2.13
2019-05-11T14:01:18.201Z,1.77
2019-05-11T14:06:18.827Z,1.40
2019-05-11T14:11:21.172Z,2.07
2019-05-11T14:16:23.645Z,1.90
2019-05-11T14:21:27.963Z,1.60
2019-05-11T14:26:28.598Z,2.20
2019-05-11T14:31:31.047Z,2.43
2019-05-11T14:36:33.540Z,2.20
2019-05-11T14:41:38.022Z,2.07
2019-05-11T14:46:38.665Z,1.90
2019-05-11T14:51:40.986Z,2.50
2019-05-11T14:56:43.459Z,4.57
2019-05-11T15:01:48.780Z,2.40
2019-05-11T15:06:49.125Z,2.40
2019-05-11T15:11:52.670Z,2.23
2019-05-11T15:16:53.634Z,2.37
2019-05-11T15:21:58.024Z,1.70
2019-05-11T15:26:58.579Z,1.80
2019-05-11T15:32:01.059Z,2.10
2019-05-11T15:37:03.526Z,1.40
2019-05-11T15:42:13.258Z,2.37
2019-05-11T15:47:08.511Z,1.70
2019-05-11T15:52:10.988Z,3.67
2019-05-11T15:57:13.464Z,2.17
2019-05-11T16:02:17.896Z,2.10
2019-05-11T16:07:18.883Z,1.83
2019-05-11T16:12:20.890Z,1.50
2019-05-11T16:17:23.365Z,4.57
2019-05-11T16:22:27.853Z,3.90
2019-05-11T16:27:28.543Z,3.33
2019-05-11T16:32:30.810Z,2.20
2019-05-11T16:37:33.277Z,1.43
2019-05-11T16:42:35.741Z,1.50
2019-05-11T16:47:39.088Z,2.70
2019-05-11T16:52:40.726Z,1.77
2019-05-11T16:57:43.213Z,2.07
2019-05-11T17:02:45.703Z,1.90
2019-05-11T17:07:48.498Z,5.00
2019-05-11T17:12:50.619Z,2.50
2019-05-11T17:17:53.078Z,4.23
2019-05-11T17:22:55.548Z,2.93
2019-05-11T17:27:58.820Z,3.43
2019-05-11T17:33:00.483Z,4.87
2019-05-11T17:38:02.942Z,3.33
2019-05-11T17:43:05.437Z,3.77
2019-05-11T17:48:08.515Z,3.53
2019-05-11T17:53:10.347Z,3.50
2019-05-11T17:58:12.816Z,3.97
2019-05-11T18:03:15.291Z,3.73
2019-05-11T18:08:18.775Z,5.57
2019-05-11T18:13:20.221Z,6.07
2019-05-11T18:18:24.165Z,5.70
2019-05-11T18:23:25.165Z,4.90
2019-05-11T18:28:29.019Z,5.17
2019-05-11T18:33:30.123Z,4.97
2019-05-11T18:38:32.609Z,5.23
2019-05-11T18:43:35.082Z,6.77
2019-05-11T18:48:38.116Z,5.73
2019-05-11T18:53:40.020Z,4.80
2019-05-11T18:58:42.511Z,5.00
2019-05-11T19:03:44.996Z,4.90
2019-05-11T19:08:47.924Z,4.70
2019-05-11T19:13:49.996Z,4.60
2019-05-11T19:18:52.468Z,4.40
2019-05-11T19:23:54.962Z,4.20
2019-05-11T19:28:57.845Z,5.17
2019-05-11T19:33:59.918Z,4.03
2019-05-11T19:39:02.394Z,5.80
2019-05-11T19:44:04.883Z,5.20
2019-05-11T19:49:08.596Z,4.97
2019-05-11T19:54:09.843Z,3.57
2019-05-11T19:59:12.428Z,3.13
2019-05-11T20:04:14.923Z,4.80
2019-05-11T20:09:19.115Z,4.97
2019-05-11T20:14:19.876Z,3.70
2019-05-11T20:19:22.331Z,5.27
2019-05-11T20:24:25.256Z,4.40
2019-05-11T20:29:27.772Z,4.57
2019-05-11T20:34:29.844Z,4.23
2019-05-11T20:39:32.204Z,5.50
2019-05-11T20:44:34.675Z,4.70
2019-05-11T20:49:38.652Z,5.67
2019-05-11T20:54:39.641Z,4.40
2019-05-11T20:59:44.204Z,8.27
2019-05-11T21:04:49.014Z,8.33
2019-05-11T21:09:49.130Z,5.80
2019-05-11T21:14:51.604Z,6.53
2019-05-11T21:19:54.070Z,6.67
2019-05-11T21:24:58.208Z,7.20
2019-05-11T21:29:59.024Z,7.00
2019-05-11T21:35:01.528Z,7.00
2019-05-11T21:40:03.989Z,4.60
2019-05-11T21:45:08.407Z,4.20
2019-05-11T21:50:08.953Z,7.57
2019-05-11T21:55:11.433Z,5.27
2019-05-11T22:00:13.908Z,5.90
2019-05-11T22:05:18.318Z,8.90
2019-05-11T22:10:18.868Z,7.63
2019-05-11T22:15:21.399Z,6.90
2019-05-11T22:20:23.863Z,4.73
2019-05-11T22:25:28.549Z,6.47
2019-05-11T22:30:28.793Z,6.13
2019-05-11T22:35:31.253Z,7.30
2019-05-11T22:40:33.739Z,6.47
2019-05-11T22:45:38.268Z,7.23
2019-05-11T22:50:38.686Z,10.77
2019-05-11T22:55:41.147Z,7.40
2019-05-11T23:00:43.636Z,7.33
2019-05-11T23:05:48.765Z,11.03
2019-05-11T23:10:51.250Z,9.70
2019-05-11T23:15:53.727Z,8.10
2019-05-11T23:20:58.215Z,8.77
2019-05-11T23:25:58.715Z,9.40
2019-05-11T23:31:01.126Z,10.90
2019-05-11T23:36:03.605Z,10.37
2019-05-11T23:41:08.225Z,10.67
2019-05-11T23:46:08.538Z,13.80
2019-05-11T23:51:11.017Z,10.97
2019-05-11T23:56:13.478Z,9.30
